Time,TemperatureF,DewpointF,PressureIn,WindDirection,WindDirectionDegrees,WindSpeedMPH,WindSpeedGustMPH,Humidity,HourlyPrecipIn,Conditions,Clouds,dailyrainin,SolarRadiationWatts/m^2,SoftwareType,DateUTC
2013-02-13 00:00:00,53.4,44.2,29.96,South,180,2.3,2.3,71,0.00,FEW,,0.00,0.0,WeatherDisplay:10.37,2013-02-12 22:00:00,
2013-02-13 00:05:00,53.4,44.2,29.96,SSW,202,5.8,5.8,71,0.00,FEW,,0.00,0.0,WeatherDisplay:10.37,2013-02-12 22:05:00,
2013-02-13 00:10:00,53.4,44.2,29.96,SSE,158,12.7,12.7,71,0.00,FEW,,0.00,0.0,WeatherDisplay:10.37,2013-02-12 22:10:00,
2013-02-13 00:15:00,53.8,44.6,29.96,SE,135,2.3,2.3,71,0.00,FEW,,0.00,0.0,WeatherDisplay:10.37,2013-02-12 22:15:00,
2013-02-13 00:20:00,53.8,44.6,29.95,SE,135,2.3,2.3,71,0.00,FEW,,0.00,0.0,WeatherDisplay:10.37,2013-02-12 22:20:00,
2013-02-13 00:25:00,53.8,44.6,29.96,SSE,158,2.3,2.3,71,0.00,FEW,,0.00,0.0,WeatherDisplay:10.37,2013-02-12 22:25:00,
2013-02-13 00:30:00,53.8,44.6,29.95,SE,135,2.3,2.3,71,0.00,FEW,,0.00,0.0,WeatherDisplay:10.37,2013-02-12 22:30:00,
2013-02-13 00:35:00,53.6,44.4,29.95,South,180,0.0,0.0,71,0.00,FEW,,0.00,0.0,WeatherDisplay:10.37,2013-02-12 22:35:00,
2013-02-13 00:40:00,53.4,44.2,29.95,SSW,202,2.3,2.3,71,0.00,FEW,,0.00,0.0,WeatherDisplay:10.37,2013-02-12 22:40:00,
2013-02-13 00:45:00,53.4,44.2,29.95,SSE,158,5.8,5.8,71,0.00,FEW,,0.00,0.0,WeatherDisplay:10.37,2013-02-12 22:45:00,
2013-02-13 00:50:00,53.4,44.2,29.95,SW,225,5.8,5.8,71,0.00,FEW,,0.00,0.0,WeatherDisplay:10.37,2013-02-12 22:50:00,
2013-02-13 00:55:00,53.4,44.2,29.95,South,180,9.2,9.2,71,0.00,FEW,,0.00,0.0,WeatherDisplay:10.37,2013-02-12 22:55:00,
2013-02-13 01:00:00,53.4,44.2,29.95,South,180,9.2,9.2,71,0.00,FEW,,0.00,0.0,WeatherDisplay:10.37,2013-02-12 23:00:00,
2013-02-13 01:05:00,53.4,44.2,29.95,SSW,202,5.8,5.8,71,0.00,FEW,,0.00,0.0,WeatherDisplay:10.37,2013-02-12 23:05:00,
2013-02-13 01:10:00,53.4,44.2,29.95,South,180,6.9,6.9,71,0.00,FEW,,0.00,0.0,WeatherDisplay:10.37,2013-02-12 23:10:00,
2013-02-13 01:15:00,53.4,44.2,29.96,South,180,5.8,5.8,71,0.00,FEW,,0.00,0.0,WeatherDisplay:10.37,2013-02-12 23:15:00,
2013-02-13 01:20:00,53.6,44.0,29.95,South,180,0.0,0.0,70,0.00,SCT,,0.00,0.0,WeatherDisplay:10.37,2013-02-12 23:20:00,
2013-02-13 01:25:00,53.4,43.9,29.96,SE,135,0.0,0.0,70,0.00,SCT,,0.00,0.0,WeatherDisplay:10.37,2013-02-12 23:25:00,
2013-02-13 01:30:00,53.4,43.9,29.95,SSE,158,0.0,0.0,70,0.00,SCT,,0.00,0.0,WeatherDisplay:10.37,2013-02-12 23:30:00,
2013-02-13 01:35:00,53.4,43.9,29.95,South,180,0.0,0.0,70,0.00,SCT,,0.00,0.0,WeatherDisplay:10.37,2013-02-12 23:35:00,
2013-02-13 01:40:00,53.4,43.9,29.95,SE,135,3.5,3.5,70,0.00,SCT,,0.00,0.0,WeatherDisplay:10.37,2013-02-12 23:40:00,
2013-02-13 01:45:00,53.4,43.9,29.95,ESE,112,1.6,0.0,70,0.00,SCT,,0.00,0.0,WeatherDisplay:10.37,2013-02-12 23:45:00,
2013-02-13 01:50:00,53.4,43.9,29.95,ESE,112,3.5,3.5,70,0.00,SCT,,0.00,0.0,WeatherDisplay:10.37,2013-02-12 23:50:00,
2013-02-13 01:55:00,53.4,43.9,29.95,South,180,5.8,5.8,70,0.00,SCT,,0.00,0.0,WeatherDisplay:10.37,2013-02-12 23:55:00,
2013-02-13 02:00:00,53.4,43.9,29.95,ESE,112,4.6,4.6,70,0.00,SCT,,0.00,0.0,WeatherDisplay:10.37,2013-02-13 00:00:00,
2013-02-13 02:05:00,53.6,44.0,29.95,SSE,158,3.5,3.5,70,0.00,SCT,,0.00,0.0,WeatherDisplay:10.37,2013-02-13 00:05:00,
2013-02-13 02:10:00,53.6,44.0,29.96,SSE,158,4.6,4.6,70,0.00,SCT,,0.00,0.0,WeatherDisplay:10.37,2013-02-13 00:10:00,
2013-02-13 02:15:00,53.6,44.0,29.95,SSW,202,6.9,6.9,70,0.00,SCT,,0.00,0.0,WeatherDisplay:10.37,2013-02-13 00:15:00,
2013-02-13 02:20:00,53.6,44.0,29.94,SSE,158,10.4,10.4,70,0.00,SCT,,0.00,0.0,WeatherDisplay:10.37,2013-02-13 00:20:00,
2013-02-13 02:25:00,53.8,43.8,29.95,SSE,158,5.8,5.8,69,0.00,SCT,,0.00,0.0,WeatherDisplay:10.37,2013-02-13 00:25:00,
2013-02-13 02:30:00,53.8,43.8,29.95,SSE,158,11.5,11.5,69,0.00,SCT,,0.00,0.0,WeatherDisplay:10.37,2013-02-13 00:30:00,
2013-02-13 02:35:00,53.8,43.8,29.95,SSE,158,5.8,5.8,69,0.00,SCT,,0.00,0.0,WeatherDisplay:10.37,2013-02-13 00:35:00,
2013-02-13 02:40:00,53.8,43.8,29.94,South,180,5.1,5.1,69,0.00,SCT,,0.00,0.0,WeatherDisplay:10.37,2013-02-13 00:40:00,
2013-02-13 02:45:00,53.8,43.5,29.94,SE,135,6.9,6.9,68,0.00,SCT,,0.00,0.0,WeatherDisplay:10.37,2013-02-13 00:45:00,
2013-02-13 02:50:00,53.8,43.8,29.93,SE,135,3.5,3.5,69,0.00,SCT,,0.00,0.0,WeatherDisplay:10.37,2013-02-13 00:50:00,
2013-02-13 02:55:00,53.6,43.7,29.93,SSE,158,5.8,5.8,69,0.00,SCT,,0.00,0.0,WeatherDisplay:10.37,2013-02-13 00:55:00,
2013-02-13 03:00:00,53.6,43.7,29.94,SSE,158,3.5,3.5,69,0.00,SCT,,0.00,0.0,WeatherDisplay:10.37,2013-02-13 01:00:00,
2013-02-13 03:05:00,53.6,43.7,29.94,SSE,158,3.5,3.5,69,0.00,SCT,,0.00,0.0,WeatherDisplay:10.37,2013-02-13 01:05:00,
2013-02-13 03:10:00,53.6,43.7,29.94,SSE,158,3.5,3.5,69,0.00,SCT,,0.00,0.0,WeatherDisplay:10.37,2013-02-13 01:10:00,
2013-02-13 03:15:00,53.4,43.9,29.93,SSE,158,5.8,5.8,70,0.00,SCT,,0.00,0.0,WeatherDisplay:10.37,2013-02-13 01:15:00,
2013-02-13 03:20:00,53.4,43.9,29.93,South,180,8.1,8.1,70,0.00,SCT,,0.00,0.0,WeatherDisplay:10.37,2013-02-13 01:20:00,
2013-02-13 03:25:00,53.4,43.9,29.93,SSE,158,5.8,5.8,70,0.00,SCT,,0.00,0.0,WeatherDisplay:10.37,2013-02-13 01:25:00,
2013-02-13 03:30:00,53.4,43.9,29.93,South,180,4.6,4.6,70,0.00,SCT,,0.00,0.0,WeatherDisplay:10.37,2013-02-13 01:30:00,
2013-02-13 03:35:00,53.2,43.7,29.92,South,180,4.6,4.6,70,0.00,SCT,,0.00,0.0,WeatherDisplay:10.37,2013-02-13 01:35:00,
2013-02-13 03:40:00,53.2,43.7,29.93,South,180,5.8,5.8,70,0.00,SCT,,0.00,0.0,WeatherDisplay:10.37,2013-02-13 01:40:00,
2013-02-13 03:45:00,53.2,43.7,29.92,South,180,3.8,3.8,70,0.00,SCT,,0.00,0.0,WeatherDisplay:10.37,2013-02-13 01:45:00,
2013-02-13 03:50:00,53.2,43.7,29.92,ESE,112,8.3,8.3,70,0.00,SCT,,0.00,0.0,WeatherDisplay:10.37,2013-02-13 01:50:00,
2013-02-13 03:55:00,53.2,43.3,29.92,SE,135,4.7,4.7,69,0.00,SCT,,0.00,0.0,WeatherDisplay:10.37,2013-02-13 01:55:00,
2013-02-13 04:00:00,53.2,43.3,29.92,South,180,5.8,5.8,69,0.00,SCT,,0.00,0.0,WeatherDisplay:10.37,2013-02-13 02:00:00,
2013-02-13 04:05:00,53.4,43.5,29.91,ESE,112,0.0,0.0,69,0.00,SCT,,0.00,0.0,WeatherDisplay:10.37,2013-02-13 02:05:00,
2013-02-13 04:10:00,53.2,43.3,29.92,SE,135,1.8,1.8,69,0.00,SCT,,0.00,0.0,WeatherDisplay:10.37,2013-02-13 02:10:00,
2013-02-13 04:15:00,53.2,43.3,29.91,East,90,0.0,0.0,69,0.00,SCT,,0.00,0.0,WeatherDisplay:10.37,2013-02-13 02:15:00,
2013-02-13 04:20:00,53.2,43.3,29.91,ENE,68,3.5,3.5,69,0.00,SCT,,0.00,0.0,WeatherDisplay:10.37,2013-02-13 02:20:00,
2013-02-13 04:25:00,52.9,43.0,29.91,NE,45,3.5,3.5,69,0.00,SCT,,0.00,0.0,WeatherDisplay:10.37,2013-02-13 02:25:00,
2013-02-13 04:30:00,52.7,42.8,29.91,NE,45,0.0,0.0,69,0.00,SCT,,0.00,0.0,WeatherDisplay:10.37,2013-02-13 02:30:00,
2013-02-13 04:35:00,52.5,43.0,29.90,NE,45,0.0,0.0,70,0.00,SCT,,0.00,0.0,WeatherDisplay:10.37,2013-02-13 02:35:00,
2013-02-13 04:40:00,52.3,42.8,29.90,East,90,0.0,0.0,70,0.00,SCT,,0.00,0.0,WeatherDisplay:10.37,2013-02-13 02:40:00,
2013-02-13 04:45:00,52.3,42.8,29.90,ENE,68,1.1,1.1,70,0.00,SCT,,0.00,0.0,WeatherDisplay:10.37,2013-02-13 02:45:00,
2013-02-13 04:50:00,52.2,42.7,29.90,ENE,68,3.5,3.5,70,0.00,SCT,,0.00,0.0,WeatherDisplay:10.37,2013-02-13 02:50:00,
2013-02-13 04:55:00,52.2,42.7,29.90,SSE,158,0.0,0.0,70,0.00,SCT,,0.00,0.0,WeatherDisplay:10.37,2013-02-13 02:55:00,
2013-02-13 05:00:00,52.2,42.7,29.89,SSE,158,0.0,0.0,70,0.00,SCT,,0.00,0.0,WeatherDisplay:10.37,2013-02-13 03:00:00,
2013-02-13 05:05:00,52.2,42.7,29.89,SE,135,2.3,0.0,70,0.00,BKN,,0.00,0.0,WeatherDisplay:10.37,2013-02-13 03:05:00,
2013-02-13 05:10:00,52.3,42.8,29.89,SSW,202,6.0,6.0,70,0.00,BKN,,0.00,0.0,WeatherDisplay:10.37,2013-02-13 03:10:00,
2013-02-13 05:15:00,52.5,43.0,29.88,South,180,4.6,4.6,70,0.00,BKN,,0.00,0.0,WeatherDisplay:10.37,2013-02-13 03:15:00,
2013-02-13 05:20:00,52.7,43.2,29.89,SE,135,4.6,4.6,70,0.00,BKN,,0.00,0.0,WeatherDisplay:10.37,2013-02-13 03:20:00,
2013-02-13 05:25:00,52.9,43.4,29.88,South,180,3.5,3.5,70,0.00,BKN,,0.00,0.0,WeatherDisplay:10.37,2013-02-13 03:25:00,
2013-02-13 05:30:00,52.9,43.4,29.88,South,180,8.1,8.1,70,0.00,BKN,,0.00,0.0,WeatherDisplay:10.37,2013-02-13 03:30:00,
2013-02-13 05:35:00,53.2,43.3,29.88,SE,135,10.4,10.4,69,0.00,BKN,,0.00,0.0,WeatherDisplay:10.37,2013-02-13 03:35:00,
2013-02-13 05:40:00,53.2,42.9,29.88,South,180,5.8,5.8,68,0.00,BKN,,0.00,0.0,WeatherDisplay:10.37,2013-02-13 03:40:00,
2013-02-13 05:45:00,53.4,43.1,29.88,SSE,158,5.8,5.8,68,0.00,BKN,,0.00,0.0,WeatherDisplay:10.37,2013-02-13 03:45:00,
2013-02-13 05:50:00,53.4,43.1,29.87,SSE,158,8.1,8.1,68,0.00,BKN,,0.00,0.0,WeatherDisplay:10.37,2013-02-13 03:50:00,
2013-02-13 05:55:00,53.4,43.1,29.88,SE,135,3.5,3.5,68,0.00,BKN,,0.00,0.0,WeatherDisplay:10.37,2013-02-13 03:55:00,
2013-02-13 06:00:00,53.4,43.1,29.87,South,180,4.6,4.6,68,0.00,BKN,,0.00,0.0,WeatherDisplay:10.37,2013-02-13 04:00:00,
2013-02-13 06:05:00,53.2,42.9,29.87,South,180,8.1,8.1,68,0.00,BKN,,0.00,0.0,WeatherDisplay:10.37,2013-02-13 04:05:00,
2013-02-13 06:10:00,53.2,43.3,29.88,ENE,68,2.3,2.3,69,0.00,BKN,,0.00,0.0,WeatherDisplay:10.37,2013-02-13 04:10:00,
2013-02-13 06:15:00,53.2,43.3,29.88,SE,135,3.5,3.5,69,0.00,BKN,,0.00,0.0,WeatherDisplay:10.37,2013-02-13 04:15:00,
2013-02-13 06:20:00,53.2,43.3,29.87,NE,45,3.5,3.5,69,0.00,BKN,,0.00,0.0,WeatherDisplay:10.37,2013-02-13 04:20:00,
2013-02-13 06:25:00,53.2,43.3,29.87,SE,135,3.5,3.5,69,0.00,BKN,,0.00,0.0,WeatherDisplay:10.37,2013-02-13 04:25:00,
2013-02-13 06:30:00,53.2,43.3,29.87,ESE,112,1.1,1.1,69,0.00,BKN,,0.00,0.0,WeatherDisplay:10.37,2013-02-13 04:30:00,
2013-02-13 06:35:00,53.2,43.7,29.87,ENE,68,6.9,6.9,70,0.00,BKN,,0.00,0.0,WeatherDisplay:10.37,2013-02-13 04:35:00,
2013-02-13 06:40:00,53.2,43.7,29.87,SE,135,5.8,5.8,70,0.00,BKN,,0.00,0.0,WeatherDisplay:10.37,2013-02-13 04:40:00,
2013-02-13 06:45:00,52.9,43.4,29.87,South,180,2.3,2.3,70,0.00,BKN,,0.00,0.0,WeatherDisplay:10.37,2013-02-13 04:45:00,
2013-02-13 06:50:00,52.9,43.4,29.87,SE,135,2.3,2.3,70,0.00,BKN,,0.00,0.0,WeatherDisplay:10.37,2013-02-13 04:50:00,
2013-02-13 06:55:00,52.9,43.4,29.87,SSE,158,2.3,2.3,70,0.00,BKN,,0.00,0.0,WeatherDisplay:10.37,2013-02-13 04:55:00,
2013-02-13 07:00:00,52.9,43.0,29.87,SE,135,1.1,1.1,69,0.00,BKN,,0.00,0.0,WeatherDisplay:10.37,2013-02-13 05:00:00,
2013-02-13 07:05:00,53.2,42.9,29.87,South,180,4.6,4.6,68,0.00,BKN,,0.00,0.0,WeatherDisplay:10.37,2013-02-13 05:05:00,
2013-02-13 07:10:00,53.4,42.7,29.87,SSE,158,3.5,3.5,67,0.00,BKN,,0.00,0.0,WeatherDisplay:10.37,2013-02-13 05:10:00,
2013-02-13 07:15:00,53.6,42.1,29.87,SSW,202,4.6,4.6,65,0.00,BKN,,0.00,0.0,WeatherDisplay:10.37,2013-02-13 05:15:00,
2013-02-13 07:20:00,53.8,41.9,29.87,SSW,202,6.9,6.9,64,0.00,BKN,,0.00,0.0,WeatherDisplay:10.37,2013-02-13 05:20:00,
2013-02-13 07:25:00,53.8,41.9,29.87,SSE,158,4.6,4.6,64,0.00,BKN,,0.00,0.0,WeatherDisplay:10.37,2013-02-13 05:25:00,
2013-02-13 07:30:00,54.1,41.8,29.87,South,180,10.4,10.4,63,0.00,BKN,,0.00,0.0,WeatherDisplay:10.37,2013-02-13 05:30:00,
2013-02-13 07:35:00,54.3,42.0,29.87,SE,135,11.2,11.2,63,0.00,BKN,,0.00,0.0,WeatherDisplay:10.37,2013-02-13 05:35:00,
2013-02-13 07:40:00,54.5,42.2,29.87,SSE,158,9.2,9.2,63,0.00,BKN,,0.00,0.0,WeatherDisplay:10.37,2013-02-13 05:40:00,
2013-02-13 07:45:00,54.5,42.2,29.87,South,180,11.5,11.5,63,0.00,BKN,,0.00,0.0,WeatherDisplay:10.37,2013-02-13 05:45:00,
2013-02-13 07:50:00,54.5,42.6,29.87,South,180,3.5,3.5,64,0.00,BKN,,0.00,0.0,WeatherDisplay:10.37,2013-02-13 05:50:00,
2013-02-13 07:55:00,54.5,42.6,29.87,ESE,112,7.2,7.2,64,0.00,BKN,,0.00,0.0,WeatherDisplay:10.37,2013-02-13 05:55:00,
2013-02-13 08:00:00,54.5,43.0,29.87,SSE,158,11.5,11.5,65,0.00,BKN,,0.00,0.0,WeatherDisplay:10.37,2013-02-13 06:00:00,
2013-02-13 08:05:00,54.7,43.1,29.87,South,180,10.4,10.4,65,0.00,BKN,,0.00,0.0,WeatherDisplay:10.37,2013-02-13 06:05:00,
2013-02-13 08:10:00,54.7,43.1,29.87,SE,135,9.4,9.4,65,0.00,BKN,,0.00,0.0,WeatherDisplay:10.37,2013-02-13 06:10:00,
2013-02-13 08:15:00,54.7,43.1,29.88,South,180,9.2,9.3,65,0.00,BKN,,0.00,0.0,WeatherDisplay:10.37,2013-02-13 06:15:00,
2013-02-13 08:20:00,55.0,43.1,29.88,SSW,202,10.4,10.4,64,0.00,BKN,,0.00,0.0,WeatherDisplay:10.37,2013-02-13 06:20:00,
2013-02-13 08:25:00,55.0,43.1,29.88,ESE,112,13.8,13.8,64,0.00,BKN,,0.00,0.0,WeatherDisplay:10.37,2013-02-13 06:25:00,
2013-02-13 08:30:00,55.2,42.8,29.88,ESE,112,13.8,13.8,63,0.00,BKN,,0.00,0.0,WeatherDisplay:10.37,2013-02-13 06:30:00,
2013-02-13 08:35:00,55.2,42.4,29.87,SSE,158,10.4,10.4,62,0.00,BKN,,0.00,0.0,WeatherDisplay:10.37,2013-02-13 06:35:00,
2013-02-13 08:40:00,55.3,42.5,29.87,SSE,166,10.0,19.0,62,0.00,BKN,,0.00,0.0,WeatherDisplay:10.37,2013-02-13 06:40:00,
2013-02-13 08:45:00,55.4,42.6,29.88,South,180,9.2,9.2,62,0.00,BKN,,0.00,0.0,WeatherDisplay:10.37,2013-02-13 06:45:00,
2013-02-13 08:50:00,55.6,42.8,29.87,South,180,16.1,16.1,62,0.00,BKN,,0.00,0.0,WeatherDisplay:10.37,2013-02-13 06:50:00,
2013-02-13 08:55:00,55.4,43.0,29.87,WSW,248,18.4,18.4,63,0.00,BKN,,0.00,0.0,WeatherDisplay:10.37,2013-02-13 06:55:00,
2013-02-13 09:00:00,55.0,43.5,29.87,South,180,10.4,10.7,65,0.00,BKN,,0.00,0.0,WeatherDisplay:10.37,2013-02-13 07:00:00,
2013-02-13 09:05:00,54.7,43.5,29.87,SE,135,16.1,16.1,66,0.00,BKN,,0.00,0.0,WeatherDisplay:10.37,2013-02-13 07:05:00,
2013-02-13 09:10:00,54.7,43.9,29.88,South,180,10.4,10.4,67,0.00,BKN,,0.00,0.0,WeatherDisplay:10.37,2013-02-13 07:10:00,
2013-02-13 09:15:00,54.7,44.3,29.88,South,180,17.3,17.3,68,0.00,BKN,,0.00,0.0,WeatherDisplay:10.37,2013-02-13 07:15:00,
2013-02-13 09:20:00,54.3,44.4,29.88,South,180,10.5,10.5,69,0.01,-RA,,0.01,0.0,WeatherDisplay:10.37,2013-02-13 07:20:00,
2013-02-13 09:25:00,54.0,44.8,29.88,South,171,9.0,14.0,71,0.00,-RA,,0.02,0.0,WeatherDisplay:10.37,2013-02-13 07:25:00,
2013-02-13 09:30:00,53.8,45.0,29.88,South,180,19.6,19.6,72,0.02,-RA,,0.02,0.0,WeatherDisplay:10.37,2013-02-13 07:30:00,
2013-02-13 09:35:00,52.3,43.9,29.88,ESE,112,17.3,17.3,73,0.08,RA,,0.08,0.0,WeatherDisplay:10.37,2013-02-13 07:35:00,
2013-02-13 09:40:00,52.2,44.1,29.88,ENE,68,13.8,13.8,74,0.09,RA,,0.09,0.0,WeatherDisplay:10.37,2013-02-13 07:40:00,
2013-02-13 09:45:00,52.3,44.6,29.88,ESE,112,16.1,16.1,75,0.09,RA,,0.09,0.0,WeatherDisplay:10.37,2013-02-13 07:45:00,
2013-02-13 09:50:00,52.9,45.2,29.88,SSW,202,8.5,8.6,75,0.09,RA,,0.09,0.0,WeatherDisplay:10.37,2013-02-13 07:50:00,
2013-02-13 09:55:00,53.6,45.2,29.88,SSE,158,8.1,8.1,73,0.09,RA,,0.09,0.0,WeatherDisplay:10.37,2013-02-13 07:55:00,
2013-02-13 10:00:00,53.8,45.3,29.88,SSW,202,16.1,16.1,73,0.09,RA,,0.09,0.0,WeatherDisplay:10.37,2013-02-13 08:00:00,
2013-02-13 10:05:00,54.1,45.3,29.88,South,180,17.3,17.3,72,0.09,-RA,,0.09,0.0,WeatherDisplay:10.37,2013-02-13 08:05:00,
2013-02-13 10:10:00,54.3,45.1,29.88,South,180,17.0,17.0,71,0.09,-RA,,0.09,0.0,WeatherDisplay:10.37,2013-02-13 08:10:00,
2013-02-13 10:15:00,54.3,44.7,29.88,SSW,202,16.1,16.1,70,0.09,-RA,,0.09,0.0,WeatherDisplay:10.37,2013-02-13 08:15:00,
2013-02-13 10:20:00,54.3,44.7,29.88,South,180,5.8,7.7,70,0.08,-RA,,0.09,0.0,WeatherDisplay:10.37,2013-02-13 08:20:00,
2013-02-13 10:25:00,54.3,44.4,29.88,SSE,158,22.6,22.6,69,0.07,-RA,,0.09,0.0,WeatherDisplay:10.37,2013-02-13 08:25:00,
2013-02-13 10:30:00,54.3,44.0,29.88,SSW,202,12.7,12.7,68,0.07,-RA,,0.09,0.0,WeatherDisplay:10.37,2013-02-13 08:30:00,
2013-02-13 10:35:00,54.5,44.2,29.88,SW,225,11.5,11.5,68,0.01,-RA,,0.09,0.0,WeatherDisplay:10.37,2013-02-13 08:35:00,
2013-02-13 10:40:00,54.5,44.2,29.88,South,180,5.8,5.8,68,0.00,-RA,,0.09,0.0,WeatherDisplay:10.37,2013-02-13 08:40:00,
2013-02-13 10:45:00,54.5,44.5,29.88,South,180,13.8,13.8,69,0.00,-RA,,0.09,0.0,WeatherDisplay:10.37,2013-02-13 08:45:00,
2013-02-13 10:50:00,54.5,44.5,29.88,SW,225,4.6,6.1,69,0.00,OVC,,0.09,0.0,WeatherDisplay:10.37,2013-02-13 08:50:00,
2013-02-13 10:55:00,54.5,44.5,29.88,SSW,202,5.8,5.8,69,0.00,OVC,,0.09,0.0,WeatherDisplay:10.37,2013-02-13 08:55:00,
2013-02-13 11:00:00,54.7,45.1,29.87,SSE,158,9.2,9.2,70,0.00,OVC,,0.09,0.0,WeatherDisplay:10.37,2013-02-13 09:00:00,
2013-02-13 11:05:00,54.7,45.1,29.87,West,270,16.1,16.1,70,0.00,OVC,,0.09,0.0,WeatherDisplay:10.37,2013-02-13 09:05:00,
2013-02-13 11:10:00,53.1,43.9,29.87,WSW,248,8.1,8.7,71,0.00,OVC,,0.10,0.0,WeatherDisplay:10.37,2013-02-13 09:10:00,
2013-02-13 11:15:00,51.1,42.7,29.88,WNW,292,11.5,11.5,73,0.03,RA,,0.12,0.0,WeatherDisplay:10.37,2013-02-13 09:15:00,
2013-02-13 11:20:00,50.2,42.2,29.87,North,0,8.1,8.1,74,0.04,RA,,0.13,0.0,WeatherDisplay:10.37,2013-02-13 09:20:00,
2013-02-13 11:25:00,49.6,42.4,29.87,ENE,68,3.5,3.5,76,0.04,RA,,0.13,0.0,WeatherDisplay:10.37,2013-02-13 09:25:00,
2013-02-13 11:30:00,49.8,42.9,29.87,SE,135,1.1,0.0,77,0.04,RA,,0.13,0.0,WeatherDisplay:10.37,2013-02-13 09:30:00,
2013-02-13 11:35:00,49.8,42.9,29.88,West,270,17.3,17.3,77,0.04,RA,,0.13,0.0,WeatherDisplay:10.37,2013-02-13 09:35:00,
2013-02-13 11:40:00,49.8,43.2,29.91,West,270,13.8,13.8,78,0.07,RA,,0.18,0.0,WeatherDisplay:10.37,2013-02-13 09:40:00,
2013-02-13 11:45:00,48.9,42.4,29.91,West,270,13.8,13.8,78,0.20,RA,,0.36,0.0,WeatherDisplay:10.37,2013-02-13 09:45:00,
2013-02-13 11:50:00,48.0,41.8,29.91,WNW,292,9.2,9.2,79,0.33,RA,,0.42,0.0,WeatherDisplay:10.37,2013-02-13 09:50:00,
2013-02-13 11:55:00,48.0,41.8,29.90,West,270,5.8,5.8,79,0.34,RA,,0.43,0.0,WeatherDisplay:10.37,2013-02-13 09:55:00,
2013-02-13 12:00:00,48.0,42.1,29.89,East,90,0.0,0.0,80,0.35,RA,,0.44,0.0,WeatherDisplay:10.37,2013-02-13 10:00:00,
2013-02-13 12:05:00,48.0,42.5,29.89,East,90,1.1,0.0,81,0.42,RA,,0.52,0.0,WeatherDisplay:10.37,2013-02-13 10:05:00,
2013-02-13 12:10:00,48.0,42.5,29.90,ENE,68,3.6,3.6,81,0.44,RA,,0.53,0.0,WeatherDisplay:10.37,2013-02-13 10:10:00,
2013-02-13 12:15:00,47.8,42.6,29.90,East,90,2.3,2.3,82,0.41,RA,,0.54,0.0,WeatherDisplay:10.37,2013-02-13 10:15:00,
2013-02-13 12:20:00,47.8,42.6,29.89,ENE,68,2.2,2.2,82,0.41,RA,,0.54,0.0,WeatherDisplay:10.37,2013-02-13 10:20:00,
2013-02-13 12:25:00,47.8,42.9,29.88,NE,45,3.5,3.5,83,0.41,RA,,0.54,0.0,WeatherDisplay:10.37,2013-02-13 10:25:00,
2013-02-13 12:30:00,47.5,42.9,29.88,NE,45,6.9,6.9,84,0.41,RA,,0.54,0.0,WeatherDisplay:10.37,2013-02-13 10:30:00,
2013-02-13 12:35:00,47.3,42.7,29.87,East,90,4.9,4.9,84,0.48,RA,,0.61,0.0,WeatherDisplay:10.37,2013-02-13 10:35:00,
2013-02-13 12:40:00,47.3,42.7,29.87,ENE,68,3.5,3.5,84,0.45,RA,,0.61,0.0,WeatherDisplay:10.37,2013-02-13 10:40:00,
2013-02-13 12:45:00,47.1,42.8,29.87,ENE,68,3.5,3.5,85,0.33,RA,,0.62,0.0,WeatherDisplay:10.37,2013-02-13 10:45:00,
2013-02-13 12:50:00,47.3,43.0,29.86,NE,45,3.5,3.5,85,0.20,RA,,0.63,0.0,WeatherDisplay:10.37,2013-02-13 10:50:00,
2013-02-13 12:55:00,47.3,43.3,29.86,NW,315,3.5,3.5,86,0.25,RA,,0.69,0.0,WeatherDisplay:10.37,2013-02-13 10:55:00,
2013-02-13 13:00:00,47.1,43.1,29.87,North,0,5.8,0.0,86,0.30,RA,,0.75,0.0,WeatherDisplay:10.37,2013-02-13 11:00:00,
2013-02-13 13:05:00,47.3,43.3,29.88,WNW,292,3.5,3.5,86,0.33,RA,,0.86,0.0,WeatherDisplay:10.37,2013-02-13 11:05:00,
2013-02-13 13:10:00,47.5,43.5,29.89,WSW,248,4.6,6.7,86,0.44,RA,,1.00,0.0,WeatherDisplay:10.37,2013-02-13 11:10:00,
2013-02-13 13:15:00,47.5,43.5,29.88,NW,315,7.4,7.4,86,0.52,RA,,1.06,0.0,WeatherDisplay:10.37,2013-02-13 11:15:00,
2013-02-13 13:20:00,47.3,43.3,29.89,NW,315,5.1,5.1,86,0.54,RA,,1.08,0.0,WeatherDisplay:10.37,2013-02-13 11:20:00,
2013-02-13 13:25:00,47.3,43.3,29.89,WNW,292,4.6,4.6,86,0.59,RA,,1.13,0.0,WeatherDisplay:10.37,2013-02-13 11:25:00,
2013-02-13 13:30:00,47.3,43.3,29.89,SW,225,0.0,0.0,86,0.61,RA,,1.14,0.0,WeatherDisplay:10.37,2013-02-13 11:30:00,
2013-02-13 13:35:00,47.3,43.0,29.88,ENE,68,2.3,2.3,85,0.55,RA,,1.16,0.0,WeatherDisplay:10.37,2013-02-13 11:35:00,
2013-02-13 13:40:00,47.3,43.0,29.89,SE,135,1.1,0.0,85,0.55,RA,,1.17,0.0,WeatherDisplay:10.37,2013-02-13 11:40:00,
2013-02-13 13:45:00,47.3,43.0,29.90,ESE,112,3.5,3.5,85,0.56,RA,,1.18,0.0,WeatherDisplay:10.37,2013-02-13 11:45:00,
2013-02-13 13:50:00,47.3,43.3,29.90,SE,135,4.5,4.5,86,0.63,RA,,1.25,0.0,WeatherDisplay:10.37,2013-02-13 11:50:00,
2013-02-13 13:55:00,47.1,43.1,29.91,ESE,112,2.5,2.5,86,0.60,RA,,1.26,0.0,WeatherDisplay:10.37,2013-02-13 11:55:00,
2013-02-13 14:00:00,47.1,43.1,29.90,ENE,68,4.0,4.0,86,0.55,RA,,1.28,0.0,WeatherDisplay:10.37,2013-02-13 12:00:00,
2013-02-13 14:05:00,46.6,42.6,29.90,ENE,68,3.5,3.5,86,0.48,RA,,1.32,0.0,WeatherDisplay:10.37,2013-02-13 12:05:00,
2013-02-13 14:10:00,46.2,42.3,29.89,NNE,22,4.7,4.7,86,0.37,RA,,1.34,0.0,WeatherDisplay:10.37,2013-02-13 12:10:00,
2013-02-13 14:15:00,46.0,42.1,29.88,NNW,338,4.6,4.6,86,0.32,RA,,1.36,0.0,WeatherDisplay:10.37,2013-02-13 12:15:00,
2013-02-13 14:20:00,46.0,42.1,29.88,North,0,3.5,0.0,86,0.28,RA,,1.36,0.0,WeatherDisplay:10.37,2013-02-13 12:20:00,
2013-02-13 14:25:00,46.0,42.4,29.90,NNE,22,0.0,0.0,87,0.24,RA,,1.37,0.0,WeatherDisplay:10.37,2013-02-13 12:25:00,
2013-02-13 14:30:00,46.0,42.4,29.90,NNE,22,1.1,0.0,87,0.22,RA,,1.37,0.0,WeatherDisplay:10.37,2013-02-13 12:30:00,
2013-02-13 14:35:00,46.0,42.4,29.89,ENE,68,3.5,3.5,87,0.21,RA,,1.37,0.0,WeatherDisplay:10.37,2013-02-13 12:35:00,
2013-02-13 14:40:00,46.0,42.4,29.89,NE,45,3.8,3.8,87,0.20,RA,,1.37,0.0,WeatherDisplay:10.37,2013-02-13 12:40:00,
2013-02-13 14:45:00,46.0,42.4,29.89,ENE,68,3.5,3.5,87,0.20,RA,,1.38,0.0,WeatherDisplay:10.37,2013-02-13 12:45:00,
2013-02-13 14:50:00,46.2,42.6,29.88,NE,45,3.5,3.5,87,0.14,RA,,1.39,0.0,WeatherDisplay:10.37,2013-02-13 12:50:00,
2013-02-13 14:55:00,46.6,42.9,29.88,NE,45,1.1,1.1,87,0.14,RA,,1.40,0.0,WeatherDisplay:10.37,2013-02-13 12:55:00,
2013-02-13 15:00:00,46.6,43.2,29.89,North,0,3.6,3.6,88,0.12,RA,,1.40,0.0,WeatherDisplay:10.37,2013-02-13 13:00:00,
2013-02-13 15:05:00,46.8,43.4,29.88,North,0,3.5,3.5,88,0.09,RA,,1.40,0.0,WeatherDisplay:10.37,2013-02-13 13:05:00,
2013-02-13 15:10:00,46.8,43.4,29.88,North,0,2.3,0.0,88,0.06,RA,,1.40,0.0,WeatherDisplay:10.37,2013-02-13 13:10:00,
2013-02-13 15:15:00,46.9,43.6,29.88,ENE,68,2.7,2.7,88,0.04,RA,,1.40,0.0,WeatherDisplay:10.37,2013-02-13 13:15:00,
2013-02-13 15:20:00,47.1,43.7,29.88,ENE,68,2.7,2.7,88,0.04,RA,,1.40,0.0,WeatherDisplay:10.37,2013-02-13 13:20:00,
2013-02-13 15:25:00,47.3,43.9,29.88,NE,45,5.8,5.8,88,0.03,OVC,,1.40,0.0,WeatherDisplay:10.37,2013-02-13 13:25:00,
2013-02-13 15:30:00,47.5,44.1,29.88,NNE,30,0.0,3.0,88,0.00,OVC,,1.40,0.0,WeatherDisplay:10.37,2013-02-13 13:30:00,
2013-02-13 15:35:00,47.7,44.4,29.89,NNE,16,0.0,3.0,88,0.00,OVC,,1.40,0.0,WeatherDisplay:10.37,2013-02-13 13:35:00,
2013-02-13 15:40:00,47.8,44.5,29.88,North,8,2.0,5.0,88,0.00,OVC,,1.40,0.0,WeatherDisplay:10.37,2013-02-13 13:40:00,
2013-02-13 15:45:00,48.0,44.6,29.88,North,5,1.0,4.0,88,0.00,OVC,,1.40,0.0,WeatherDisplay:10.37,2013-02-13 13:45:00,
2013-02-13 15:50:00,48.2,44.8,29.88,North,359,2.0,5.0,88,0.00,BKN,,1.40,0.0,WeatherDisplay:10.37,2013-02-13 13:50:00,
2013-02-13 15:55:00,48.4,45.1,29.88,North,3,2.0,5.0,88,0.00,RA,,1.40,0.0,WeatherDisplay:10.37,2013-02-13 13:55:00,
2013-02-13 16:00:00,48.7,45.3,29.88,NNE,23,0.0,2.0,88,0.00,RA,,1.40,0.0,WeatherDisplay:10.37,2013-02-13 14:00:00,
2013-02-13 16:05:00,48.9,45.5,29.88,NNW,338,3.5,3.5,88,0.01,RA,,1.40,0.0,WeatherDisplay:10.37,2013-02-13 14:05:00,
2013-02-13 16:10:00,48.9,45.5,29.89,ENE,68,2.3,2.3,88,0.01,RA,,1.40,0.0,WeatherDisplay:10.37,2013-02-13 14:10:00,
2013-02-13 16:15:00,49.1,45.7,29.89,ENE,68,4.7,4.7,88,0.01,RA,,1.40,0.0,WeatherDisplay:10.37,2013-02-13 14:15:00,
2013-02-13 16:20:00,48.9,45.2,29.89,NNE,22,0.0,0.0,87,0.01,RA,,1.40,0.0,WeatherDisplay:10.37,2013-02-13 14:20:00,
2013-02-13 16:25:00,49.3,45.6,29.88,NNE,22,2.3,2.3,87,0.01,BKN,,1.40,0.0,WeatherDisplay:10.37,2013-02-13 14:25:00,
2013-02-13 16:30:00,49.3,45.6,29.88,NNW,338,3.5,3.5,87,0.01,BKN,,1.40,0.0,WeatherDisplay:10.37,2013-02-13 14:30:00,
2013-02-13 16:35:00,49.6,45.9,29.89,North,0,2.3,2.3,87,0.01,BKN,,1.40,0.0,WeatherDisplay:10.37,2013-02-13 14:35:00,
2013-02-13 16:40:00,49.8,46.1,29.89,NE,45,2.3,2.3,87,0.01,BKN,,1.40,0.0,WeatherDisplay:10.37,2013-02-13 14:40:00,
2013-02-13 16:45:00,50.2,46.5,29.88,NNW,338,3.5,3.5,87,0.01,BKN,,1.40,0.0,WeatherDisplay:10.37,2013-02-13 14:45:00,
2013-02-13 16:50:00,50.5,46.8,29.88,NE,45,1.1,1.1,87,0.01,BKN,,1.40,0.0,WeatherDisplay:10.37,2013-02-13 14:50:00,
2013-02-13 16:55:00,50.7,47.0,29.88,NNW,338,3.5,3.5,87,0.00,BKN,,1.40,0.0,WeatherDisplay:10.37,2013-02-13 14:55:00,
2013-02-13 17:00:00,50.7,46.7,29.88,NNE,13,1.0,4.0,86,0.00,BKN,,1.40,0.0,WeatherDisplay:10.37,2013-02-13 15:00:00,
2013-02-13 17:05:00,50.7,46.7,29.88,West,270,0.0,0.0,86,0.00,BKN,,1.40,0.0,WeatherDisplay:10.37,2013-02-13 15:05:00,
2013-02-13 17:10:00,50.7,46.7,29.88,NNW,338,0.0,0.0,86,0.00,BKN,,1.40,0.0,WeatherDisplay:10.37,2013-02-13 15:10:00,
2013-02-13 17:15:00,50.7,46.4,29.88,East,90,0.0,0.0,85,0.00,BKN,,1.40,0.0,WeatherDisplay:10.37,2013-02-13 15:15:00,
2013-02-13 17:20:00,50.7,46.4,29.88,East,90,0.0,0.0,85,0.00,BKN,,1.40,0.0,WeatherDisplay:10.37,2013-02-13 15:20:00,
2013-02-13 17:25:00,50.7,46.4,29.88,ENE,68,0.0,0.0,85,0.00,BKN,,1.40,0.0,WeatherDisplay:10.37,2013-02-13 15:25:00,
2013-02-13 17:30:00,50.7,46.4,29.88,SE,135,2.3,2.3,85,0.00,BKN,,1.40,0.0,WeatherDisplay:10.37,2013-02-13 15:30:00,
2013-02-13 17:35:00,50.9,46.6,29.87,NNE,22,0.0,0.0,85,0.00,BKN,,1.40,0.0,WeatherDisplay:10.37,2013-02-13 15:35:00,
2013-02-13 17:40:00,50.9,46.6,29.88,NE,45,0.0,0.0,85,0.00,BKN,,1.40,0.0,WeatherDisplay:10.37,2013-02-13 15:40:00,
2013-02-13 17:45:00,50.7,46.4,29.87,NW,315,1.1,1.1,85,0.00,BKN,,1.40,0.0,WeatherDisplay:10.37,2013-02-13 15:45:00,
2013-02-13 17:50:00,50.9,46.6,29.88,NNW,338,0.0,0.0,85,0.00,BKN,,1.40,0.0,WeatherDisplay:10.37,2013-02-13 15:50:00,
2013-02-13 17:55:00,50.7,46.4,29.87,NE,45,0.0,0.0,85,0.00,BKN,,1.40,0.0,WeatherDisplay:10.37,2013-02-13 15:55:00,
2013-02-13 18:00:00,50.7,46.4,29.87,ESE,112,0.0,0.0,85,0.00,BKN,,1.40,0.0,WeatherDisplay:10.37,2013-02-13 16:00:00,
2013-02-13 18:05:00,50.7,46.4,29.87,ENE,68,1.6,0.0,85,0.00,BKN,,1.40,0.0,WeatherDisplay:10.37,2013-02-13 16:05:00,
2013-02-13 18:10:00,50.7,46.4,29.87,ESE,112,2.3,2.3,85,0.00,BKN,,1.40,0.0,WeatherDisplay:10.37,2013-02-13 16:10:00,
2013-02-13 18:15:00,50.7,46.4,29.87,NNE,22,2.3,2.3,85,0.00,BKN,,1.40,0.0,WeatherDisplay:10.37,2013-02-13 16:15:00,
2013-02-13 18:20:00,50.7,46.4,29.88,NNW,338,3.5,3.5,85,0.00,BKN,,1.40,0.0,WeatherDisplay:10.37,2013-02-13 16:20:00,
2013-02-13 18:25:00,50.5,46.2,29.87,North,0,1.1,0.0,85,0.00,BKN,,1.40,0.0,WeatherDisplay:10.37,2013-02-13 16:25:00,
2013-02-13 18:30:00,50.5,46.2,29.87,North,0,3.5,3.5,85,0.00,BKN,,1.40,0.0,WeatherDisplay:10.37,2013-02-13 16:30:00,
2013-02-13 18:35:00,50.5,46.2,29.88,East,90,0.0,0.2,85,0.00,BKN,,1.40,0.0,WeatherDisplay:10.37,2013-02-13 16:35:00,
2013-02-13 18:40:00,50.5,46.2,29.87,NNE,22,0.0,0.0,85,0.00,BKN,,1.40,0.0,WeatherDisplay:10.37,2013-02-13 16:40:00,
2013-02-13 18:45:00,50.5,46.2,29.87,NNE,22,0.0,0.0,85,0.00,BKN,,1.40,0.0,WeatherDisplay:10.37,2013-02-13 16:45:00,
2013-02-13 18:50:00,50.4,46.0,29.86,North,0,3.5,3.5,85,0.00,BKN,,1.40,0.0,WeatherDisplay:10.37,2013-02-13 16:50:00,
2013-02-13 18:55:00,50.5,46.2,29.87,North,0,1.1,1.1,85,0.00,BKN,,1.40,0.0,WeatherDisplay:10.37,2013-02-13 16:55:00,
2013-02-13 19:00:00,50.5,46.5,29.87,North,0,0.0,0.0,86,0.00,BKN,,1.40,0.0,WeatherDisplay:10.37,2013-02-13 17:00:00,
2013-02-13 19:05:00,50.5,46.5,29.86,NNE,22,1.1,1.1,86,0.00,BKN,,1.40,0.0,WeatherDisplay:10.37,2013-02-13 17:05:00,
2013-02-13 19:10:00,50.5,46.5,29.86,SSE,158,0.0,0.0,86,0.00,BKN,,1.40,0.0,WeatherDisplay:10.37,2013-02-13 17:10:00,
2013-02-13 19:15:00,50.5,46.5,29.87,ENE,68,1.1,1.1,86,0.00,BKN,,1.40,0.0,WeatherDisplay:10.37,2013-02-13 17:15:00,
2013-02-13 19:20:00,50.5,46.5,29.87,NNE,22,1.1,1.1,86,0.00,BKN,,1.40,0.0,WeatherDisplay:10.37,2013-02-13 17:20:00,
2013-02-13 19:25:00,50.5,46.5,29.86,NNE,22,3.5,3.5,86,0.00,BKN,,1.40,0.0,WeatherDisplay:10.37,2013-02-13 17:25:00,
2013-02-13 19:30:00,50.5,46.5,29.87,NE,45,0.0,0.0,86,0.00,BKN,,1.40,0.0,WeatherDisplay:10.37,2013-02-13 17:30:00,
2013-02-13 19:35:00,50.5,46.5,29.87,NNW,338,0.0,0.0,86,0.00,BKN,,1.40,0.0,WeatherDisplay:10.37,2013-02-13 17:35:00,
2013-02-13 19:40:00,50.7,46.7,29.87,North,0,2.3,2.3,86,0.00,BKN,,1.40,0.0,WeatherDisplay:10.37,2013-02-13 17:40:00,
2013-02-13 19:45:00,50.7,46.7,29.87,NNE,22,2.3,2.3,86,0.00,BKN,,1.40,0.0,WeatherDisplay:10.37,2013-02-13 17:45:00,
2013-02-13 19:50:00,50.7,46.7,29.87,North,0,3.5,3.5,86,0.00,BKN,,1.40,0.0,WeatherDisplay:10.37,2013-02-13 17:50:00,
2013-02-13 19:55:00,50.7,46.7,29.88,ENE,68,1.1,0.0,86,0.00,BKN,,1.40,0.0,WeatherDisplay:10.37,2013-02-13 17:55:00,
2013-02-13 20:00:00,50.7,46.7,29.87,NNW,338,2.3,2.3,86,0.00,BKN,,1.40,0.0,WeatherDisplay:10.37,2013-02-13 18:00:00,
2013-02-13 20:05:00,50.7,46.7,29.88,NNW,338,1.1,1.1,86,0.00,BKN,,1.40,0.0,WeatherDisplay:10.37,2013-02-13 18:05:00,
2013-02-13 20:10:00,50.7,46.7,29.87,North,0,0.0,0.0,86,0.00,BKN,,1.40,0.0,WeatherDisplay:10.37,2013-02-13 18:10:00,
2013-02-13 20:15:00,50.9,46.9,29.87,ENE,68,0.0,0.0,86,0.00,BKN,,1.40,0.0,WeatherDisplay:10.37,2013-02-13 18:15:00,
2013-02-13 20:20:00,51.1,47.0,29.87,North,0,1.3,0.0,86,0.00,BKN,,1.40,0.0,WeatherDisplay:10.37,2013-02-13 18:20:00,
2013-02-13 20:25:00,51.1,47.0,29.87,NNE,22,2.3,2.3,86,0.00,BKN,,1.40,0.0,WeatherDisplay:10.37,2013-02-13 18:25:00,
2013-02-13 20:30:00,51.3,47.2,29.86,ENE,68,2.2,2.2,86,0.00,BKN,,1.40,0.0,WeatherDisplay:10.37,2013-02-13 18:30:00,
2013-02-13 20:35:00,51.3,47.2,29.86,NNE,22,1.1,1.1,86,0.00,BKN,,1.40,0.0,WeatherDisplay:10.37,2013-02-13 18:35:00,
2013-02-13 20:40:00,51.3,47.2,29.87,SE,135,3.5,3.5,86,0.00,BKN,,1.40,0.0,WeatherDisplay:10.37,2013-02-13 18:40:00,
2013-02-13 20:45:00,51.1,46.7,29.87,ENE,68,2.3,2.3,85,0.00,BKN,,1.40,0.0,WeatherDisplay:10.37,2013-02-13 18:45:00,
2013-02-13 20:50:00,51.1,46.7,29.87,SE,135,0.0,0.0,85,0.00,BKN,,1.40,0.0,WeatherDisplay:10.37,2013-02-13 18:50:00,
2013-02-13 20:55:00,51.1,46.7,29.87,NNE,22,0.0,0.0,85,0.00,BKN,,1.40,0.0,WeatherDisplay:10.37,2013-02-13 18:55:00,
2013-02-13 21:00:00,51.1,46.7,29.87,East,99,0.0,0.0,85,0.00,BKN,,1.40,0.0,WeatherDisplay:10.37,2013-02-13 19:00:00,
2013-02-13 21:05:00,51.1,46.7,29.87,South,180,0.0,0.0,85,0.00,BKN,,1.40,0.0,WeatherDisplay:10.37,2013-02-13 19:05:00,
2013-02-13 21:10:00,51.4,47.4,29.87,SSE,158,0.0,0.0,86,0.00,BKN,,1.40,0.0,WeatherDisplay:10.37,2013-02-13 19:10:00,
2013-02-13 21:15:00,51.6,47.3,29.87,SSE,158,3.5,3.5,85,0.00,BKN,,1.40,0.0,WeatherDisplay:10.37,2013-02-13 19:15:00,
2013-02-13 21:20:00,52.0,47.6,29.87,SSE,158,6.9,6.9,85,0.00,BKN,,1.40,0.0,WeatherDisplay:10.37,2013-02-13 19:20:00,
2013-02-13 21:25:00,52.2,47.5,29.87,SSE,158,2.3,2.3,84,0.00,BKN,,1.40,0.0,WeatherDisplay:10.37,2013-02-13 19:25:00,
2013-02-13 21:30:00,52.2,47.5,29.88,SE,135,0.0,0.0,84,0.00,BKN,,1.40,0.0,WeatherDisplay:10.37,2013-02-13 19:30:00,
2013-02-13 21:35:00,52.3,47.6,29.88,SE,135,0.0,0.0,84,0.00,SCT,,1.40,0.0,WeatherDisplay:10.37,2013-02-13 19:35:00,
2013-02-13 21:40:00,52.3,47.3,29.87,SE,135,0.0,0.0,83,0.00,SCT,,1.40,0.0,WeatherDisplay:10.37,2013-02-13 19:40:00,
2013-02-13 21:45:00,52.3,47.3,29.87,SE,135,3.5,3.5,83,0.00,SCT,,1.40,0.0,WeatherDisplay:10.37,2013-02-13 19:45:00,
2013-02-13 21:50:00,52.5,47.5,29.88,South,180,3.5,3.5,83,0.00,SCT,,1.40,0.0,WeatherDisplay:10.37,2013-02-13 19:50:00,
2013-02-13 21:55:00,52.5,47.5,29.88,South,180,5.8,5.8,83,0.00,SCT,,1.40,0.0,WeatherDisplay:10.37,2013-02-13 19:55:00,
2013-02-13 22:00:00,52.7,47.7,29.88,South,180,8.1,8.1,83,0.00,SCT,,1.40,0.0,WeatherDisplay:10.37,2013-02-13 20:00:00,
2013-02-13 22:05:00,52.7,47.4,29.88,SSE,158,8.1,8.1,82,0.00,SCT,,1.40,0.0,WeatherDisplay:10.37,2013-02-13 20:05:00,
2013-02-13 22:10:00,52.9,47.5,29.88,SSE,158,5.8,5.8,82,0.00,SCT,,1.40,0.0,WeatherDisplay:10.37,2013-02-13 20:10:00,
2013-02-13 22:15:00,52.9,47.5,29.88,SSW,202,3.5,3.5,82,0.00,SCT,,1.40,0.0,WeatherDisplay:10.37,2013-02-13 20:15:00,
2013-02-13 22:20:00,52.9,47.5,29.87,SSE,158,2.9,2.9,82,0.00,SCT,,1.40,0.0,WeatherDisplay:10.37,2013-02-13 20:20:00,
2013-02-13 22:25:00,52.9,47.5,29.88,South,180,1.1,1.1,82,0.00,SCT,,1.40,0.0,WeatherDisplay:10.37,2013-02-13 20:25:00,
2013-02-13 22:30:00,52.9,47.5,29.88,South,180,0.0,0.0,82,0.00,SCT,,1.40,0.0,WeatherDisplay:10.37,2013-02-13 20:30:00,
2013-02-13 22:35:00,52.7,47.4,29.88,SSW,202,2.3,2.3,82,0.00,SCT,,1.40,0.0,WeatherDisplay:10.37,2013-02-13 20:35:00,
2013-02-13 22:40:00,52.7,47.4,29.88,SW,225,2.3,2.3,82,0.00,SCT,,1.40,0.0,WeatherDisplay:10.37,2013-02-13 20:40:00,
2013-02-13 22:45:00,52.7,47.4,29.88,WSW,248,0.0,0.0,82,0.00,SCT,,1.40,0.0,WeatherDisplay:10.37,2013-02-13 20:45:00,
2013-02-13 22:50:00,52.5,47.2,29.88,ESE,112,0.0,0.0,82,0.00,SCT,,1.40,0.0,WeatherDisplay:10.37,2013-02-13 20:50:00,
2013-02-13 22:55:00,52.3,47.0,29.88,NNE,22,0.0,0.0,82,0.00,SCT,,1.40,0.0,WeatherDisplay:10.37,2013-02-13 20:55:00,
2013-02-13 23:00:00,52.3,47.0,29.88,North,0,0.0,0.0,82,0.00,SCT,,1.40,0.0,WeatherDisplay:10.37,2013-02-13 21:00:00,
2013-02-13 23:05:00,52.3,47.0,29.88,NNW,338,1.1,0.0,82,0.00,SCT,,1.40,0.0,WeatherDisplay:10.37,2013-02-13 21:05:00,
2013-02-13 23:10:00,52.2,47.2,29.88,NW,315,3.5,3.5,83,0.00,SCT,,1.40,0.0,WeatherDisplay:10.37,2013-02-13 21:10:00,
2013-02-13 23:15:00,52.2,47.2,29.88,NW,315,0.0,0.0,83,0.00,SCT,,1.40,0.0,WeatherDisplay:10.37,2013-02-13 21:15:00,
2013-02-13 23:20:00,52.2,47.2,29.88,NW,315,0.0,0.0,83,0.00,SCT,,1.40,0.0,WeatherDisplay:10.37,2013-02-13 21:20:00,
2013-02-13 23:25:00,52.3,47.3,29.88,SSW,202,0.0,0.0,83,0.00,SCT,,1.40,0.0,WeatherDisplay:10.37,2013-02-13 21:25:00,
2013-02-13 23:30:00,52.3,47.3,29.88,West,270,0.0,0.0,83,0.00,SCT,,1.40,0.0,WeatherDisplay:10.37,2013-02-13 21:30:00,
2013-02-13 23:35:00,52.3,47.3,29.88,West,270,3.5,3.5,83,0.00,SCT,,1.40,0.0,WeatherDisplay:10.37,2013-02-13 21:35:00,
2013-02-13 23:40:00,52.3,47.3,29.88,West,271,2.3,2.3,83,0.00,SCT,,1.40,0.0,WeatherDisplay:10.37,2013-02-13 21:40:00,
2013-02-13 23:45:00,52.3,47.3,29.88,West,270,0.0,0.0,83,0.00,SCT,,1.40,0.0,WeatherDisplay:10.37,2013-02-13 21:45:00,
2013-02-13 23:50:00,52.3,47.3,29.87,SE,135,1.1,1.1,83,0.00,SCT,,1.40,0.0,WeatherDisplay:10.37,2013-02-13 21:50:00,
2013-02-13 23:55:00,52.3,47.3,29.87,SE,135,0.0,0.0,83,0.00,SCT,,1.40,0.0,WeatherDisplay:10.37,2013-02-13 21:55:00,